createdAt,value
2022-07-26T00:01:31.824Z,54.00
2022-07-26T00:04:04.409Z,51.75
2022-07-26T00:06:34.935Z,50.00
2022-07-26T00:09:06.281Z,53.50
2022-07-26T00:11:37.041Z,55.00
2022-07-26T00:14:10.170Z,50.00
2022-07-26T00:21:41.042Z,50.00
2022-07-26T00:24:12.077Z,49.00
2022-07-26T00:26:42.537Z,49.00
2022-07-26T00:29:12.919Z,50.00
2022-07-26T00:31:44.223Z,47.00
2022-07-26T00:34:14.626Z,45.00
2022-07-26T00:36:45.780Z,48.00
2022-07-26T00:39:16.239Z,48.50
2022-07-26T00:41:46.443Z,50.00
2022-07-26T00:44:18.538Z,50.00
2022-07-26T00:46:50.386Z,50.00
2022-07-26T00:49:21.566Z,49.00
2022-07-26T00:51:57.171Z,50.00
2022-07-26T00:54:32.571Z,49.00
2022-07-26T00:57:03.300Z,48.25
2022-07-26T00:59:34.036Z,49.75
2022-07-26T01:02:06.044Z,44.67
2022-07-26T01:04:38.274Z,44.67
2022-07-26T01:13:06.135Z,50.00
2022-07-26T01:15:52.747Z,49.75
2022-07-26T01:18:23.046Z,50.00
2022-07-26T01:23:54.883Z,48.00
2022-07-26T01:26:25.671Z,48.00
2022-07-26T01:28:56.171Z,49.25
2022-07-26T01:31:26.510Z,48.00
2022-07-26T01:33:57.951Z,48.00
2022-07-26T01:37:13.317Z,49.00
2022-07-26T01:39:50.104Z,47.00
2022-07-26T01:42:21.106Z,48.00
2022-07-26T01:44:54.487Z,46.50
2022-07-26T01:47:25.309Z,46.25
2022-07-26T01:52:25.034Z,46.50
2022-07-26T01:54:55.287Z,47.00
2022-07-26T01:57:25.437Z,46.00
2022-07-26T01:59:57.058Z,45.00
2022-07-26T02:02:27.746Z,45.25
2022-07-26T02:05:01.691Z,45.00
2022-07-26T02:07:34.915Z,45.50
2022-07-26T02:10:10.135Z,47.00
2022-07-26T02:12:43.627Z,45.33
2022-07-26T02:15:16.079Z,45.00
2022-07-26T02:17:47.032Z,46.00
2022-07-26T02:20:18.711Z,43.75
2022-07-26T02:22:49.824Z,43.00
2022-07-26T02:25:23.681Z,47.00
2022-07-26T02:27:56.226Z,42.75
2022-07-26T02:30:27.131Z,48.00
2022-07-26T02:32:59.789Z,43.25
2022-07-26T02:35:32.868Z,41.67
2022-07-26T02:38:11.583Z,41.00
2022-07-26T02:40:43.411Z,41.00
2022-07-26T02:43:14.205Z,43.00
2022-07-26T02:45:44.433Z,44.50
2022-07-26T02:48:33.083Z,42.00
2022-07-26T02:51:04.265Z,38.00
2022-07-26T02:53:34.601Z,36.00
2022-07-26T02:56:06.407Z,36.00
2022-07-26T02:58:43.102Z,35.00
2022-07-26T03:01:15.893Z,35.00
2022-07-26T03:03:51.081Z,36.00
2022-07-26T03:06:22.837Z,35.75
2022-07-26T03:08:53.480Z,41.00
2022-07-26T03:11:23.798Z,35.25
2022-07-26T03:13:54.346Z,38.75
2022-07-26T03:16:28.948Z,34.00
2022-07-26T03:19:00.118Z,29.75
2022-07-26T03:21:32.683Z,31.33
2022-07-26T03:24:03.646Z,31.00
2022-07-26T03:27:40.200Z,32.00
2022-07-26T03:34:04.142Z,38.75
2022-07-26T03:36:43.282Z,34.00
2022-07-26T03:39:14.320Z,31.00
2022-07-26T03:41:46.318Z,30.75
2022-07-26T03:44:17.387Z,31.00
2022-07-26T03:46:48.669Z,30.00
2022-07-26T03:49:19.681Z,28.00
2022-07-26T03:51:50.570Z,28.00
2022-07-26T03:54:20.920Z,31.00
2022-07-26T03:56:52.343Z,27.50
2022-07-26T03:59:22.861Z,27.00
2022-07-26T04:01:53.670Z,31.00
2022-07-26T04:04:25.416Z,30.25
2022-07-26T04:07:03.808Z,30.00
2022-07-26T04:09:34.646Z,34.00
2022-07-26T04:12:05.199Z,28.00
2022-07-26T04:14:36.548Z,29.00
2022-07-26T04:17:07.137Z,30.00
2022-07-26T04:19:39.757Z,29.25
2022-07-26T04:22:10.217Z,31.00
2022-07-26T04:24:40.691Z,30.25
2022-07-26T04:27:11.072Z,34.00
2022-07-26T04:29:42.188Z,34.00
2022-07-26T04:32:12.605Z,31.00
2022-07-26T04:34:43.195Z,31.00
2022-07-26T04:37:13.752Z,32.00
2022-07-26T04:39:54.748Z,32.00
2022-07-26T04:42:28.357Z,32.50
2022-07-26T04:45:03.116Z,34.25
2022-07-26T04:47:37.035Z,34.25
2022-07-26T04:50:08.444Z,30.50
2022-07-26T04:52:40.353Z,34.00
2022-07-26T04:55:18.965Z,35.75
2022-07-26T04:57:52.930Z,34.25
2022-07-26T05:00:26.493Z,36.50
2022-07-26T05:03:00.385Z,37.00
2022-07-26T05:05:34.173Z,38.33
2022-07-26T05:08:08.403Z,38.50
2022-07-26T05:10:39.990Z,38.00
2022-07-26T05:13:10.685Z,36.00
2022-07-26T05:15:42.826Z,37.00
2022-07-26T05:18:13.839Z,35.00
2022-07-26T05:20:44.750Z,35.50
2022-07-26T05:23:16.176Z,37.00
2022-07-26T05:25:50.265Z,36.00
2022-07-26T05:28:35.721Z,35.00
2022-07-26T05:31:08.317Z,38.00
2022-07-26T05:33:39.984Z,35.25
2022-07-26T05:36:11.003Z,37.00
2022-07-26T05:38:45.278Z,34.25
2022-07-26T05:41:16.215Z,35.25
2022-07-26T05:43:47.320Z,35.75
2022-07-26T05:46:18.108Z,34.00
2022-07-26T05:48:49.808Z,31.75
2022-07-26T05:51:20.904Z,30.75
2022-07-26T05:53:53.434Z,32.00
2022-07-26T05:56:24.768Z,34.50
2022-07-26T05:58:57.781Z,32.00
2022-07-26T06:01:29.353Z,32.00
2022-07-26T06:04:02.651Z,34.33
2022-07-26T06:06:33.243Z,37.00
2022-07-26T06:09:04.086Z,40.00
2022-07-26T06:11:34.600Z,38.25
2022-07-26T06:14:05.431Z,35.50
2022-07-26T06:16:37.058Z,37.00
2022-07-26T06:19:08.699Z,39.67
2022-07-26T06:21:39.416Z,36.33
2022-07-26T06:24:11.223Z,30.75
2022-07-26T06:26:42.665Z,31.25
2022-07-26T06:29:14.777Z,34.00
2022-07-26T06:31:45.583Z,36.00
2022-07-26T06:34:18.024Z,35.00
2022-07-26T06:36:49.237Z,35.25
2022-07-26T06:39:20.734Z,34.67
2022-07-26T06:41:54.923Z,38.00
2022-07-26T06:44:33.283Z,41.67
2022-07-26T06:47:04.652Z,45.00
2022-07-26T06:49:36.735Z,45.00
2022-07-26T06:52:11.802Z,45.25
2022-07-26T06:54:43.005Z,43.75
2022-07-26T06:57:14.036Z,41.00
2022-07-26T06:59:45.189Z,45.00
2022-07-26T07:02:16.259Z,45.00
2022-07-26T07:04:48.019Z,44.00
2022-07-26T07:07:18.779Z,42.00
2022-07-26T07:09:49.331Z,39.67
2022-07-26T07:12:20.208Z,41.25
2022-07-26T07:14:51.377Z,43.50
2022-07-26T07:17:22.612Z,40.25
2022-07-26T07:19:54.080Z,40.00
2022-07-26T07:22:24.329Z,39.25
2022-07-26T07:24:54.562Z,38.25
2022-07-26T07:27:24.648Z,40.00
2022-07-26T07:29:57.421Z,39.00
2022-07-26T07:32:28.523Z,40.67
2022-07-26T07:34:58.832Z,38.25
2022-07-26T07:37:52.368Z,39.00
2022-07-26T07:40:19.232Z,37.50
2022-07-26T07:42:49.396Z,35.75
2022-07-26T07:45:20.016Z,38.75
2022-07-26T07:47:50.544Z,39.00
2022-07-26T07:50:20.653Z,38.50
2022-07-26T07:52:51.224Z,37.25
2022-07-26T07:55:36.562Z,35.50
2022-07-26T07:58:11.160Z,36.00
2022-07-26T08:00:42.317Z,34.75
2022-07-26T08:03:13.153Z,30.00
2022-07-26T08:05:50.941Z,34.50
2022-07-26T08:08:23.413Z,31.00
2022-07-26T08:10:54.890Z,34.00
2022-07-26T08:13:29.346Z,31.00
2022-07-26T08:15:59.548Z,30.00
2022-07-26T08:18:31.118Z,27.00
2022-07-26T08:21:01.717Z,28.50
2022-07-26T08:26:06.293Z,27.00
2022-07-26T08:28:47.511Z,26.00
2022-07-26T08:31:21.306Z,30.67
2022-07-26T08:33:51.567Z,32.00
2022-07-26T08:36:21.708Z,29.00
2022-07-26T08:38:52.592Z,27.00
2022-07-26T08:41:24.410Z,25.50
2022-07-26T08:43:54.689Z,29.00
2022-07-26T08:49:22.656Z,31.00
2022-07-26T08:56:27.455Z,30.00
2022-07-26T08:59:48.053Z,30.00
2022-07-26T09:02:18.910Z,31.00
2022-07-26T09:04:57.558Z,34.00
2022-07-26T09:07:39.944Z,30.00
2022-07-26T09:10:19.001Z,30.00
2022-07-26T09:13:01.745Z,30.00
2022-07-26T09:16:45.930Z,30.00
2022-07-26T09:19:51.952Z,33.33
2022-07-26T09:23:25.909Z,38.00
2022-07-26T09:30:22.565Z,39.00
2022-07-26T09:35:51.354Z,36.00
2022-07-26T09:37:53.225Z,37.00
2022-07-26T09:45:12.716Z,35.00
2022-07-26T09:48:08.572Z,36.50
2022-07-26T10:05:00.052Z,38.67
2022-07-26T10:11:23.383Z,40.25
2022-07-26T10:14:00.582Z,37.00
2022-07-26T10:16:33.190Z,36.00
2022-07-26T10:19:47.628Z,39.00
2022-07-26T10:22:46.087Z,38.50
2022-07-26T10:26:26.066Z,39.00
2022-07-26T10:30:14.552Z,40.50
2022-07-26T10:44:38.007Z,38.50
2022-07-26T10:48:48.309Z,40.67
2022-07-26T10:51:37.657Z,42.00
2022-07-26T10:57:49.458Z,40.00
2022-07-26T11:07:30.451Z,35.25
2022-07-26T11:10:53.442Z,39.50
2022-07-26T11:14:18.479Z,40.50
2022-07-26T11:17:48.417Z,41.50
2022-07-26T11:24:52.551Z,40.50
2022-07-26T11:42:59.939Z,37.00
2022-07-26T11:50:16.818Z,40.75
2022-07-26T11:54:36.626Z,41.75
2022-07-26T11:57:40.870Z,39.00
2022-07-26T12:00:52.123Z,40.75
2022-07-26T12:04:04.760Z,41.25
2022-07-26T12:07:23.226Z,38.75
2022-07-26T12:10:07.973Z,39.50
2022-07-26T12:12:38.673Z,39.50
2022-07-26T12:15:13.101Z,40.00
2022-07-26T12:18:01.923Z,37.00
2022-07-26T12:20:32.672Z,41.00
2022-07-26T12:23:07.549Z,40.00
2022-07-26T12:25:45.088Z,41.00
2022-07-26T12:28:39.810Z,41.00
2022-07-26T12:31:26.125Z,39.50
2022-07-26T12:33:57.221Z,38.00
2022-07-26T12:36:31.051Z,38.75
2022-07-26T12:39:02.703Z,39.00
2022-07-26T12:41:41.153Z,37.33
2022-07-26T12:44:14.993Z,40.50
2022-07-26T12:46:46.772Z,40.50
2022-07-26T12:49:17.825Z,42.50
2022-07-26T12:51:52.828Z,42.33
2022-07-26T12:54:29.167Z,42.75
2022-07-26T12:57:01.907Z,39.50
2022-07-26T12:59:33.288Z,44.25
2022-07-26T13:02:04.759Z,45.00
2022-07-26T13:04:36.122Z,41.00
2022-07-26T13:07:08.849Z,46.50
2022-07-26T13:09:42.944Z,41.00
2022-07-26T13:12:14.954Z,43.50
2022-07-26T13:14:48.741Z,44.00
2022-07-26T13:17:19.731Z,45.00
2022-07-26T13:19:53.380Z,47.00
2022-07-26T13:22:27.350Z,44.00
2022-07-26T13:24:59.213Z,45.33
2022-07-26T13:27:36.034Z,46.00
2022-07-26T13:30:09.982Z,47.00
2022-07-26T13:32:40.876Z,45.00
2022-07-26T13:35:16.140Z,44.00
2022-07-26T13:37:54.234Z,42.00
2022-07-26T13:40:31.033Z,43.67
2022-07-26T13:43:03.613Z,46.33
2022-07-26T13:45:35.432Z,45.00
2022-07-26T13:48:07.234Z,44.50
2022-07-26T13:50:38.913Z,44.75
2022-07-26T13:53:10.629Z,45.00
2022-07-26T13:55:42.177Z,47.00
2022-07-26T14:02:25.036Z,48.25
2022-07-26T14:06:04.177Z,48.00
2022-07-26T14:09:40.487Z,48.00
2022-07-26T14:13:08.480Z,47.00
2022-07-26T14:16:19.166Z,49.00
2022-07-26T14:19:37.433Z,48.00
2022-07-26T14:26:46.930Z,46.00
2022-07-26T14:29:45.316Z,44.25
2022-07-26T14:32:43.816Z,46.75
2022-07-26T14:39:35.970Z,47.00
2022-07-26T14:43:15.301Z,45.50
2022-07-26T14:48:54.787Z,47.00
2022-07-26T14:52:10.752Z,44.00
2022-07-26T14:55:09.386Z,46.75
2022-07-26T15:01:13.246Z,48.00
2022-07-26T15:16:45.873Z,47.00
2022-07-26T15:22:50.669Z,50.00
2022-07-26T15:25:57.257Z,48.00
2022-07-26T15:29:07.446Z,47.75
2022-07-26T15:32:18.870Z,48.50
2022-07-26T15:43:48.512Z,50.00
2022-07-26T15:49:41.054Z,50.00
2022-07-26T15:53:02.390Z,47.33
2022-07-26T15:58:55.889Z,37.25
2022-07-26T16:02:24.599Z,32.67
2022-07-26T16:05:20.044Z,18.67
2022-07-26T16:09:15.294Z,8.50
2022-07-26T16:12:06.358Z,10.00
2022-07-26T16:14:56.040Z,19.50
2022-07-26T16:18:42.053Z,7.50
2022-07-26T16:24:46.508Z,12.00
2022-07-26T16:31:40.329Z,8.00
2022-07-26T16:34:44.163Z,4.00
2022-07-26T16:37:41.973Z,4.50
2022-07-26T16:40:57.943Z,8.00
2022-07-26T16:43:54.528Z,6.00
2022-07-26T16:50:27.265Z,4.00
2022-07-26T16:53:13.235Z,7.50
2022-07-26T16:55:55.834Z,14.00
2022-07-26T16:58:36.805Z,4.00
2022-07-26T17:04:15.828Z,8.00
2022-07-26T17:07:07.829Z,8.00
2022-07-26T17:09:37.682Z,9.00
2022-07-26T17:12:08.422Z,7.50
2022-07-26T17:14:38.741Z,10.50
2022-07-26T17:17:09.301Z,9.00
2022-07-26T17:19:39.946Z,10.50
2022-07-26T17:22:10.406Z,8.00
2022-07-26T17:24:41.332Z,12.00
2022-07-26T17:27:12.252Z,14.50
2022-07-26T17:29:42.722Z,11.00
2022-07-26T17:32:13.479Z,15.00
2022-07-26T17:37:14.854Z,15.00
2022-07-26T17:39:51.877Z,21.00
2022-07-26T17:42:24.001Z,14.25
2022-07-26T17:44:55.212Z,15.00
2022-07-26T17:47:29.022Z,13.00
2022-07-26T17:52:54.555Z,15.00
2022-07-26T17:57:54.580Z,17.00
2022-07-26T18:00:29.625Z,15.50
2022-07-26T18:03:00.639Z,13.00
2022-07-26T18:05:35.130Z,17.67
2022-07-26T18:08:08.817Z,13.50
2022-07-26T18:10:39.133Z,12.00
2022-07-26T18:13:09.452Z,17.00
2022-07-26T18:15:39.778Z,20.50
2022-07-26T18:18:10.317Z,14.25
2022-07-26T18:20:41.239Z,15.50
2022-07-26T18:23:11.736Z,14.00
2022-07-26T18:25:42.140Z,17.00
2022-07-26T18:28:12.970Z,15.00
2022-07-26T18:30:43.527Z,15.00
2022-07-26T18:33:15.638Z,15.00
2022-07-26T18:35:49.669Z,15.00
2022-07-26T18:38:19.916Z,15.00
2022-07-26T18:40:50.126Z,14.50
2022-07-26T18:43:20.253Z,13.00
2022-07-26T18:45:50.678Z,13.00
2022-07-26T18:48:25.613Z,14.00
2022-07-26T18:50:58.912Z,17.50
2022-07-26T18:53:29.498Z,12.00
2022-07-26T18:58:30.016Z,19.50
2022-07-26T19:01:00.973Z,20.00
2022-07-26T19:03:36.462Z,18.00
2022-07-26T19:06:07.794Z,16.50
2022-07-26T19:08:38.371Z,15.00
2022-07-26T19:11:08.577Z,18.00
2022-07-26T19:13:39.863Z,22.00
2022-07-26T19:16:10.522Z,23.00
2022-07-26T19:18:40.924Z,18.00
2022-07-26T19:21:19.462Z,22.00
2022-07-26T19:23:49.830Z,25.00
2022-07-26T19:26:19.923Z,20.00
2022-07-26T19:28:50.086Z,20.00
2022-07-26T19:33:47.992Z,18.00
2022-07-26T19:36:25.446Z,22.00
2022-07-26T19:38:58.731Z,22.67
2022-07-26T19:44:00.148Z,22.00
2022-07-26T19:46:30.719Z,18.00
2022-07-26T19:49:01.031Z,18.67
2022-07-26T19:51:31.512Z,15.00
2022-07-26T19:54:01.505Z,20.00
2022-07-26T19:56:31.472Z,13.33
2022-07-26T19:59:02.026Z,15.00
2022-07-26T20:01:32.741Z,15.00
2022-07-26T20:04:04.258Z,16.00
2022-07-26T20:09:04.177Z,17.00
2022-07-26T20:11:36.412Z,14.25
2022-07-26T20:14:07.027Z,17.50
2022-07-26T20:16:37.895Z,18.67
2022-07-26T20:19:08.681Z,22.00
2022-07-26T20:21:39.729Z,15.00
2022-07-26T20:24:10.202Z,19.00
2022-07-26T20:29:12.543Z,17.25
2022-07-26T20:31:42.925Z,16.50
2022-07-26T20:34:13.412Z,17.75
2022-07-26T20:36:43.707Z,15.00
2022-07-26T20:39:14.059Z,17.00
2022-07-26T20:41:44.542Z,25.75
2022-07-26T20:46:44.804Z,15.00
2022-07-26T20:49:15.680Z,17.00
2022-07-26T20:51:46.587Z,23.00
2022-07-26T20:54:16.606Z,23.00
2022-07-26T20:56:47.610Z,21.50
2022-07-26T20:59:18.118Z,26.00
2022-07-26T21:01:48.542Z,25.00
2022-07-26T21:04:18.666Z,27.00
2022-07-26T21:06:48.901Z,27.00
2022-07-26T21:09:19.783Z,22.75
2022-07-26T21:11:52.399Z,21.33
2022-07-26T21:14:23.026Z,24.50
2022-07-26T21:16:53.353Z,27.00
2022-07-26T21:19:23.637Z,25.00
2022-07-26T21:21:56.007Z,18.75
2022-07-26T21:24:26.604Z,21.25
2022-07-26T21:26:56.909Z,26.00
2022-07-26T21:29:28.352Z,31.25
2022-07-26T21:31:59.477Z,27.00
2022-07-26T21:34:29.888Z,27.00
2022-07-26T21:36:59.850Z,30.75
2022-07-26T21:39:29.913Z,26.00
2022-07-26T21:42:00.396Z,25.00
2022-07-26T21:44:30.470Z,23.00
2022-07-26T21:47:00.635Z,26.75
2022-07-26T21:49:30.623Z,26.00
2022-07-26T21:52:01.015Z,26.50
2022-07-26T21:54:30.919Z,23.50
2022-07-26T21:57:00.747Z,26.00
2022-07-26T21:59:30.769Z,23.50
2022-07-26T22:02:02.110Z,26.33
2022-07-26T22:04:33.041Z,26.75
2022-07-26T22:07:03.291Z,26.33
2022-07-26T22:09:37.287Z,26.00
2022-07-26T22:12:07.883Z,25.00
2022-07-26T22:14:38.564Z,26.00
2022-07-26T22:17:08.500Z,25.75
2022-07-26T22:19:38.560Z,23.67
2022-07-26T22:24:37.939Z,26.00
2022-07-26T22:27:08.103Z,24.75
2022-07-26T22:29:39.743Z,23.00
2022-07-26T22:32:10.462Z,25.50
2022-07-26T22:34:40.439Z,26.00
2022-07-26T22:37:10.475Z,25.00
2022-07-26T22:39:40.476Z,18.00
2022-07-26T22:44:47.343Z,29.75
2022-07-26T22:47:18.036Z,22.25
2022-07-26T22:49:48.509Z,22.67
2022-07-26T22:52:18.966Z,23.00
2022-07-26T22:54:49.497Z,27.00
2022-07-26T22:57:19.621Z,25.00
2022-07-26T22:59:50.542Z,24.50
2022-07-26T23:02:21.323Z,30.00
2022-07-26T23:04:53.333Z,28.00
2022-07-26T23:07:24.524Z,27.00
2022-07-26T23:09:55.188Z,27.00
2022-07-26T23:12:25.867Z,27.50
2022-07-26T23:14:57.417Z,30.00
2022-07-26T23:17:28.266Z,28.33
2022-07-26T23:19:58.659Z,29.00
2022-07-26T23:22:28.639Z,31.75
2022-07-26T23:24:58.812Z,26.67
2022-07-26T23:27:28.970Z,31.67
2022-07-26T23:29:59.651Z,32.50
2022-07-26T23:32:29.752Z,29.50
2022-07-26T23:34:59.824Z,34.00
2022-07-26T23:37:30.403Z,29.00
2022-07-26T23:40:00.474Z,33.00
2022-07-26T23:42:30.460Z,35.00
2022-07-26T23:45:00.424Z,33.33
2022-07-26T23:47:30.429Z,30.00
2022-07-26T23:50:00.462Z,30.00
2022-07-26T23:52:30.488Z,30.75
2022-07-26T23:55:00.534Z,32.00
2022-07-26T23:59:59.878Z,35.00
